Edna, Oklahoma
Current Conditions -  °F | °C
As of 4:35 PM on Monday 26 Jan 2015 (Local Time) from KOKM Reporting Station
Clear Clear  
Wind Chill: 70°   Ceiling: Unl
Heat Index: 70°   Visibility: 10mi
Dew Point: 36°   Wind: 8mph
Humidity: 29%   Direction: 270°W
Pressure: 29.98"   Gusts: NA
Location:  35.7718°N, 96.3174°W
Report Text: KOKM 262235Z AUTO 27007KT 10SM CLR 21/02 A2998 RMK AO2 T02100023
Loading
Personal Weather Stations






























Interactive Weather Map New forecast layout! Learn more

10-Day Weather Forecast

Advertisements
Track Severe Weather on mobile